createdAt,value
2018-02-18T00:02:03.209Z,16.67
2018-02-18T00:04:32.007Z,14.43
2018-02-18T00:07:02.851Z,17.20
2018-02-18T00:09:30.455Z,20.08
2018-02-18T00:11:58.815Z,15.68
2018-02-18T00:14:29.721Z,19.58
2018-02-18T00:16:57.297Z,15.77
2018-02-18T00:19:24.875Z,16.08
2018-02-18T00:21:52.481Z,17.40
2018-02-18T00:24:20.136Z,15.90
2018-02-18T00:26:47.714Z,14.82
2018-02-18T00:29:15.316Z,14.70
2018-02-18T00:31:42.979Z,16.77
2018-02-18T00:34:10.555Z,16.77
2018-02-18T00:36:38.257Z,15.45
2018-02-18T00:39:05.842Z,21.08
2018-02-18T00:41:33.524Z,19.33
2018-02-18T00:44:01.127Z,19.05
2018-02-18T00:46:29.067Z,18.10
2018-02-18T00:48:56.670Z,16.08
2018-02-18T00:51:24.251Z,18.87
2018-02-18T00:53:51.861Z,22.33
2018-02-18T00:56:19.642Z,17.40
2018-02-18T00:58:47.261Z,18.35
2018-02-18T01:01:14.873Z,18.30
2018-02-18T01:03:42.467Z,18.33
2018-02-18T01:06:10.051Z,18.40
2018-02-18T01:08:38.230Z,20.70
2018-02-18T01:11:05.839Z,21.55
2018-02-18T01:13:33.425Z,19.17
2018-02-18T01:16:01.289Z,15.30
2018-02-18T01:18:29.256Z,18.50
2018-02-18T01:20:56.842Z,20.10
2018-02-18T01:23:24.438Z,17.37
2018-02-18T01:25:52.019Z,20.70
2018-02-18T01:28:19.713Z,18.35
2018-02-18T01:30:47.051Z,22.40
2018-02-18T01:33:14.650Z,16.35
2018-02-18T01:35:42.350Z,17.70
2018-02-18T01:38:10.673Z,17.90
2018-02-18T01:40:38.256Z,18.92
2018-02-18T01:43:05.930Z,19.37
2018-02-18T01:45:33.514Z,19.98
2018-02-18T01:48:01.116Z,15.88
2018-02-18T01:50:34.846Z,16.33
2018-02-18T01:53:02.462Z,17.80
2018-02-18T01:55:30.076Z,21.02
2018-02-18T01:57:57.666Z,21.42
2018-02-18T02:00:26.283Z,18.30
2018-02-18T02:02:54.214Z,17.65
2018-02-18T02:05:21.715Z,18.95
2018-02-18T02:07:49.214Z,21.48
2018-02-18T02:10:16.770Z,19.58
2018-02-18T02:12:44.263Z,18.30
2018-02-18T02:15:11.766Z,22.40
2018-02-18T02:17:39.261Z,17.65
2018-02-18T02:20:06.776Z,20.58
2018-02-18T02:22:34.273Z,18.20
2018-02-18T02:25:01.768Z,23.60
2018-02-18T02:27:29.382Z,22.50
2018-02-18T02:29:56.935Z,18.98
2018-02-18T02:32:24.442Z,19.27
2018-02-18T02:34:51.951Z,21.75
2018-02-18T02:37:19.264Z,24.45
2018-02-18T02:39:46.818Z,23.45
2018-02-18T02:42:14.336Z,22.73
2018-02-18T02:44:41.863Z,21.00
2018-02-18T02:47:09.354Z,21.08
2018-02-18T02:49:36.847Z,23.45
2018-02-18T02:52:04.352Z,23.17
2018-02-18T02:54:31.885Z,21.23
2018-02-18T02:56:59.383Z,23.67
2018-02-18T02:59:26.890Z,25.12
2018-02-18T03:01:54.407Z,23.75
2018-02-18T03:04:21.925Z,24.02
2018-02-18T03:06:49.483Z,21.83
2018-02-18T03:09:17.340Z,20.90
2018-02-18T03:11:44.847Z,22.58
2018-02-18T03:14:12.343Z,25.33
2018-02-18T03:16:39.872Z,21.33
2018-02-18T03:19:07.583Z,23.80
2018-02-18T03:21:35.089Z,20.58
2018-02-18T03:24:02.591Z,28.90
2018-02-18T03:26:30.095Z,23.50
2018-02-18T03:28:57.606Z,24.15
2018-02-18T03:31:25.140Z,19.90
2018-02-18T03:33:52.662Z,21.85
2018-02-18T03:36:20.178Z,22.90
2018-02-18T03:38:47.556Z,23.15
2018-02-18T03:41:15.074Z,24.15
2018-02-18T03:43:42.574Z,22.70
2018-02-18T03:46:10.071Z,26.02
2018-02-18T03:48:37.648Z,22.15
2018-02-18T03:51:05.304Z,19.62
2018-02-18T03:53:32.803Z,20.75
2018-02-18T03:56:00.308Z,21.85
2018-02-18T03:58:27.802Z,25.83
2018-02-18T04:00:55.339Z,23.67
2018-02-18T04:03:22.947Z,23.02
2018-02-18T04:05:50.449Z,21.00
2018-02-18T04:08:17.953Z,22.35
2018-02-18T04:10:45.449Z,22.10
2018-02-18T04:13:12.990Z,23.80
2018-02-18T04:15:40.494Z,20.08
2018-02-18T04:18:07.996Z,24.27
2018-02-18T04:20:35.527Z,23.52
2018-02-18T04:23:03.026Z,23.58
2018-02-18T04:25:30.541Z,22.87
2018-02-18T04:27:58.041Z,24.15
2018-02-18T04:30:25.539Z,22.85
2018-02-18T04:32:53.690Z,23.60
2018-02-18T04:35:21.549Z,22.48
2018-02-18T04:37:49.098Z,19.50
2018-02-18T04:40:16.743Z,26.90
2018-02-18T04:42:44.243Z,20.80
2018-02-18T04:45:11.753Z,24.23
2018-02-18T04:47:39.268Z,19.60
2018-02-18T04:50:06.888Z,22.15
2018-02-18T04:52:34.393Z,23.38
2018-02-18T04:55:01.896Z,29.20
2018-02-18T04:57:29.398Z,23.67
2018-02-18T04:59:57.019Z,26.80
2018-02-18T05:02:25.542Z,23.95
2018-02-18T05:04:53.038Z,24.83
2018-02-18T05:07:20.533Z,27.13
2018-02-18T05:09:48.034Z,28.75
2018-02-18T05:12:15.537Z,25.80
2018-02-18T05:14:44.050Z,26.37
2018-02-18T05:17:11.542Z,24.08
2018-02-18T05:19:39.061Z,24.77
2018-02-18T05:22:06.566Z,23.80
2018-02-18T05:24:34.062Z,25.55
2018-02-18T05:27:01.578Z,26.60
2018-02-18T05:29:29.079Z,28.73
2018-02-18T05:31:56.578Z,25.05
2018-02-18T05:34:24.074Z,25.45
2018-02-18T05:36:51.595Z,25.25
2018-02-18T05:39:19.114Z,28.38
2018-02-18T05:41:46.613Z,26.98
2018-02-18T05:44:14.112Z,23.25
2018-02-18T05:46:41.605Z,24.75
2018-02-18T05:49:09.098Z,25.75
2018-02-18T05:51:36.618Z,24.58
2018-02-18T05:54:04.114Z,23.48
2018-02-18T05:56:31.608Z,26.37
2018-02-18T05:58:59.112Z,27.70
2018-02-18T06:01:26.605Z,29.65
2018-02-18T06:03:54.123Z,31.27
2018-02-18T06:06:21.636Z,27.35
2018-02-18T06:08:49.126Z,26.42
2018-02-18T06:11:16.636Z,29.23
2018-02-18T06:13:44.126Z,29.85
2018-02-18T06:16:12.643Z,31.62
2018-02-18T06:18:41.105Z,32.58
2018-02-18T06:21:09.569Z,34.50
2018-02-18T06:23:37.051Z,33.13
2018-02-18T06:26:04.553Z,27.92
2018-02-18T06:28:34.045Z,27.30
2018-02-18T06:31:01.644Z,25.20
2018-02-18T06:33:29.155Z,27.25
2018-02-18T06:35:56.659Z,28.85
2018-02-18T06:38:25.258Z,27.95
2018-02-18T06:40:52.775Z,29.35
2018-02-18T06:43:20.292Z,29.02
2018-02-18T06:45:47.630Z,35.25
2018-02-18T06:48:15.121Z,28.58
2018-02-18T06:50:42.612Z,25.98
2018-02-18T06:53:10.113Z,28.95
2018-02-18T06:55:37.618Z,28.27
2018-02-18T06:58:05.133Z,29.95
2018-02-18T07:00:32.635Z,23.83
2018-02-18T07:03:00.167Z,25.30
2018-02-18T07:05:27.665Z,23.10
2018-02-18T07:07:55.181Z,24.87
2018-02-18T07:10:22.800Z,22.35
2018-02-18T07:12:50.908Z,24.65
2018-02-18T07:15:18.532Z,23.83
2018-02-18T07:17:46.091Z,26.15
2018-02-18T07:20:13.610Z,26.50
2018-02-18T07:22:41.115Z,23.25
2018-02-18T07:25:08.618Z,27.92
2018-02-18T07:27:36.463Z,26.08
2018-02-18T07:30:03.995Z,25.98
2018-02-18T07:32:31.654Z,23.77
2018-02-18T07:34:59.150Z,25.67
2018-02-18T07:37:26.683Z,30.27
2018-02-18T07:39:54.184Z,24.25
2018-02-18T07:42:21.709Z,23.25
2018-02-18T07:44:49.217Z,24.00
2018-02-18T07:47:17.648Z,21.00
2018-02-18T07:49:47.177Z,27.05
2018-02-18T07:52:14.676Z,28.48
2018-02-18T07:54:42.194Z,30.40
2018-02-18T07:57:09.506Z,24.90
2018-02-18T07:59:37.060Z,23.25
2018-02-18T08:02:04.578Z,20.92
2018-02-18T08:04:32.082Z,27.83
2018-02-18T08:06:59.574Z,22.65
2018-02-18T08:09:27.271Z,26.20
2018-02-18T08:11:54.794Z,27.55
2018-02-18T08:14:22.287Z,23.85
2018-02-18T08:16:49.786Z,22.62
2018-02-18T08:19:17.289Z,27.48
2018-02-18T08:21:44.790Z,24.33
2018-02-18T08:24:12.291Z,24.00
2018-02-18T08:26:39.783Z,28.05
2018-02-18T08:29:07.294Z,22.20
2018-02-18T08:31:35.440Z,20.00
2018-02-18T08:34:02.940Z,24.75
2018-02-18T08:36:30.431Z,27.92
2018-02-18T08:38:57.921Z,28.17
2018-02-18T08:41:25.417Z,23.27
2018-02-18T08:43:53.647Z,26.73
2018-02-18T08:46:21.234Z,27.60
2018-02-18T08:48:48.738Z,21.42
2018-02-18T08:51:16.235Z,24.08
2018-02-18T08:53:43.742Z,26.45
2018-02-18T08:56:11.243Z,22.87
2018-02-18T08:58:38.734Z,26.42
2018-02-18T09:01:06.243Z,25.55
2018-02-18T09:03:34.768Z,22.17
2018-02-18T09:06:03.202Z,26.55
2018-02-18T09:08:30.739Z,27.70
2018-02-18T09:10:58.232Z,27.70
2018-02-18T09:13:26.670Z,24.15
2018-02-18T09:15:54.279Z,26.60
2018-02-18T09:18:21.771Z,29.52
2018-02-18T09:20:49.294Z,28.17
2018-02-18T09:23:16.786Z,30.85
2018-02-18T09:25:44.754Z,25.55
2018-02-18T09:28:12.290Z,27.33
2018-02-18T09:30:39.971Z,26.50
2018-02-18T09:33:07.465Z,25.95
2018-02-18T09:35:34.965Z,22.15
2018-02-18T09:38:02.481Z,23.60
2018-02-18T09:40:29.982Z,23.70
2018-02-18T09:42:57.474Z,28.65
2018-02-18T09:45:24.976Z,24.75
2018-02-18T09:47:52.490Z,21.50
2018-02-18T09:50:20.032Z,28.05
2018-02-18T09:52:47.526Z,26.67
2018-02-18T09:55:15.031Z,23.10
2018-02-18T09:57:42.530Z,23.83
2018-02-18T10:00:10.035Z,23.55
2018-02-18T10:02:37.562Z,24.92
2018-02-18T10:05:05.061Z,21.98
2018-02-18T10:07:32.570Z,19.92
2018-02-18T10:10:01.015Z,22.27
2018-02-18T10:12:28.513Z,20.62
2018-02-18T10:14:56.037Z,23.17
2018-02-18T10:17:23.343Z,20.73
2018-02-18T10:19:50.858Z,28.83
2018-02-18T10:22:18.370Z,21.70
2018-02-18T10:24:45.862Z,22.90
2018-02-18T10:27:13.556Z,15.95
2018-02-18T10:29:41.041Z,14.95
2018-02-18T10:32:08.563Z,41.40
2018-02-18T10:34:37.015Z,17.70
2018-02-18T10:37:06.477Z,16.83
2018-02-18T10:39:33.975Z,13.02
2018-02-18T10:42:01.273Z,13.23
2018-02-18T10:44:28.775Z,17.25
2018-02-18T10:46:56.275Z,18.17
2018-02-18T10:49:23.803Z,14.45
2018-02-18T10:51:51.291Z,15.98
2018-02-18T10:54:18.837Z,17.48
2018-02-18T10:56:46.335Z,17.62
2018-02-18T10:59:13.836Z,17.52
2018-02-18T11:01:41.325Z,16.55
2018-02-18T11:04:08.635Z,17.85
2018-02-18T11:06:36.163Z,23.52
2018-02-18T11:09:04.426Z,23.67
2018-02-18T11:11:31.953Z,22.73
2018-02-18T11:13:59.456Z,23.87
2018-02-18T11:16:26.949Z,21.00
2018-02-18T11:18:54.441Z,18.23
2018-02-18T11:21:21.949Z,22.42
2018-02-18T11:23:49.467Z,21.58
2018-02-18T11:26:16.985Z,19.02
2018-02-18T11:28:45.723Z,18.65
2018-02-18T11:31:13.218Z,24.20
2018-02-18T11:33:40.789Z,24.83
2018-02-18T11:36:08.306Z,24.87
2018-02-18T11:38:35.808Z,25.20
2018-02-18T11:41:03.331Z,20.73
2018-02-18T11:43:30.654Z,22.33
2018-02-18T11:45:58.171Z,22.00
2018-02-18T11:48:25.666Z,18.87
2018-02-18T11:50:53.168Z,20.08
2018-02-18T11:53:21.694Z,19.98
2018-02-18T11:55:49.193Z,20.27
2018-02-18T11:58:16.722Z,22.73
2018-02-18T12:00:44.220Z,26.27
2018-02-18T12:03:11.740Z,23.38
2018-02-18T12:05:39.254Z,19.45
2018-02-18T12:08:06.755Z,28.83
2018-02-18T12:10:34.250Z,24.17
2018-02-18T12:13:01.750Z,24.73
2018-02-18T12:15:29.292Z,22.25
2018-02-18T12:17:56.791Z,23.90
2018-02-18T12:20:24.348Z,22.40
2018-02-18T12:22:51.839Z,20.42
2018-02-18T12:25:19.330Z,25.08
2018-02-18T12:27:47.749Z,23.45
2018-02-18T12:30:15.440Z,22.25
2018-02-18T12:32:42.965Z,21.33
2018-02-18T12:35:10.458Z,22.25
2018-02-18T12:37:37.995Z,19.02
2018-02-18T12:40:05.489Z,19.10
2018-02-18T12:42:33.010Z,20.20
2018-02-18T12:45:00.501Z,21.15
2018-02-18T12:47:28.014Z,18.65
2018-02-18T12:49:55.503Z,16.75
2018-02-18T12:52:22.932Z,17.40
2018-02-18T12:54:50.474Z,19.62
2018-02-18T12:57:17.987Z,13.85
2018-02-18T12:59:45.498Z,16.33
2018-02-18T13:02:13.015Z,16.30
2018-02-18T13:04:40.545Z,17.40
2018-02-18T13:07:07.987Z,13.13
2018-02-18T13:09:35.670Z,12.60
2018-02-18T13:12:03.190Z,11.75
2018-02-18T13:14:30.666Z,12.98
2018-02-18T13:16:58.899Z,11.85
2018-02-18T13:19:26.393Z,11.63
2018-02-18T13:21:53.909Z,8.32
2018-02-18T13:24:22.366Z,7.75
2018-02-18T13:26:49.854Z,9.85
2018-02-18T13:29:17.339Z,8.98
2018-02-18T13:31:44.840Z,11.32
2018-02-18T13:34:12.474Z,9.85
2018-02-18T13:36:39.971Z,10.57
2018-02-18T13:39:07.481Z,9.52
2018-02-18T13:41:34.974Z,9.27
2018-02-18T13:44:02.486Z,14.90
2018-02-18T13:46:29.965Z,9.05
2018-02-18T13:48:57.515Z,10.48
2018-02-18T13:51:25.066Z,10.48
2018-02-18T13:53:52.691Z,9.25
2018-02-18T13:56:20.258Z,10.82
2018-02-18T13:58:47.752Z,11.02
2018-02-18T14:01:15.245Z,9.23
2018-02-18T14:03:42.735Z,10.73
2018-02-18T14:06:10.242Z,10.50
2018-02-18T14:08:37.738Z,10.20
2018-02-18T14:11:05.235Z,13.88
2018-02-18T14:13:32.731Z,11.02
2018-02-18T14:16:00.215Z,15.23
2018-02-18T14:18:27.711Z,11.88
2018-02-18T14:20:55.230Z,11.32
2018-02-18T14:23:22.718Z,12.95
2018-02-18T14:25:50.202Z,13.10
2018-02-18T14:28:17.704Z,11.52
2018-02-18T14:30:45.195Z,15.32
2018-02-18T14:33:12.701Z,12.75
2018-02-18T14:35:40.211Z,11.30
2018-02-18T14:38:07.718Z,12.40
2018-02-18T14:40:35.194Z,12.95
2018-02-18T14:43:08.289Z,12.57
2018-02-18T14:45:41.402Z,13.75
2018-02-18T14:48:14.537Z,14.23
2018-02-18T14:50:47.562Z,14.77
2018-02-18T14:53:21.090Z,15.23
2018-02-18T14:55:54.230Z,12.80
2018-02-18T14:58:21.742Z,14.98
2018-02-18T15:00:49.227Z,13.30
2018-02-18T15:03:16.715Z,11.12
2018-02-18T15:05:44.211Z,13.88
2018-02-18T15:08:11.702Z,10.63
2018-02-18T15:10:39.256Z,13.25
2018-02-18T15:13:06.752Z,15.20
2018-02-18T15:15:35.265Z,16.45
2018-02-18T15:18:02.767Z,13.85
2018-02-18T15:20:30.264Z,12.65
2018-02-18T15:22:59.727Z,17.85
2018-02-18T15:25:27.231Z,18.48
2018-02-18T15:27:54.970Z,22.13
2018-02-18T15:30:22.482Z,68.37
2018-02-18T15:32:50.062Z,24.52
2018-02-18T15:35:17.576Z,18.20
2018-02-18T15:37:45.083Z,19.77
2018-02-18T15:40:12.570Z,13.07
2018-02-18T15:42:40.085Z,15.20
2018-02-18T15:45:07.944Z,15.20
2018-02-18T15:47:35.439Z,15.85
2018-02-18T15:50:02.930Z,14.73
2018-02-18T15:52:31.971Z,16.70
2018-02-18T15:54:59.458Z,14.77
2018-02-18T15:57:26.963Z,17.92
2018-02-18T15:59:54.478Z,16.70
2018-02-18T16:02:21.990Z,18.45
2018-02-18T16:04:49.492Z,16.67
2018-02-18T16:07:16.985Z,18.27
2018-02-18T16:09:44.494Z,17.37
2018-02-18T16:12:11.991Z,13.60
2018-02-18T16:14:39.491Z,15.80
2018-02-18T16:17:07.020Z,17.42
2018-02-18T16:19:34.522Z,14.70
2018-02-18T16:22:02.026Z,14.50
2018-02-18T16:24:29.546Z,14.73
2018-02-18T16:26:57.038Z,15.45
2018-02-18T16:29:24.534Z,12.90
2018-02-18T16:31:52.036Z,13.38
2018-02-18T16:34:20.546Z,14.77
2018-02-18T16:36:48.046Z,17.15
2018-02-18T16:39:16.489Z,18.37
2018-02-18T16:41:44.003Z,19.37
2018-02-18T16:44:11.972Z,16.25
2018-02-18T16:46:39.466Z,18.55
2018-02-18T16:49:06.962Z,17.12
2018-02-18T16:51:34.530Z,15.20
2018-02-18T16:54:02.027Z,15.52
2018-02-18T16:56:29.450Z,16.92
2018-02-18T16:58:56.943Z,15.80
2018-02-18T17:01:24.431Z,11.10
2018-02-18T17:03:51.919Z,12.30
2018-02-18T17:06:20.342Z,14.07
2018-02-18T17:08:47.894Z,10.65
2018-02-18T17:11:16.382Z,12.85
2018-02-18T17:13:43.882Z,14.57
2018-02-18T17:16:11.383Z,10.80
2018-02-18T17:18:39.809Z,32.65
2018-02-18T17:21:09.269Z,81.80
2018-02-18T17:23:37.740Z,25.02
2018-02-18T17:26:05.245Z,14.68
2018-02-18T17:28:32.735Z,18.60
2018-02-18T17:31:00.230Z,18.10
2018-02-18T17:33:28.476Z,15.40
2018-02-18T17:35:56.025Z,21.05
2018-02-18T17:38:23.669Z,15.02
2018-02-18T17:40:51.157Z,25.83
2018-02-18T17:43:18.650Z,16.23
2018-02-18T17:45:46.179Z,21.35
2018-02-18T17:48:13.682Z,18.98
2018-02-18T17:50:41.020Z,17.65
2018-02-18T17:53:08.533Z,22.35
2018-02-18T17:55:36.030Z,15.73
2018-02-18T17:58:03.526Z,19.35
2018-02-18T18:00:31.039Z,22.20
2018-02-18T18:02:58.620Z,19.17
2018-02-18T18:05:26.262Z,27.20
2018-02-18T18:07:53.810Z,18.50
2018-02-18T18:10:21.306Z,26.00
2018-02-18T18:12:48.832Z,21.25
2018-02-18T18:15:16.334Z,22.35
2018-02-18T18:17:43.830Z,22.08
2018-02-18T18:20:11.351Z,22.35
2018-02-18T18:22:38.847Z,20.55
2018-02-18T18:25:06.370Z,20.73
2018-02-18T18:27:34.067Z,24.12
2018-02-18T18:30:01.594Z,22.55
2018-02-18T18:32:29.110Z,24.95
2018-02-18T18:34:56.626Z,29.35
2018-02-18T18:37:24.155Z,26.92
2018-02-18T18:39:51.655Z,26.02
2018-02-18T18:42:19.151Z,27.83
2018-02-18T18:44:46.679Z,28.80
2018-02-18T18:47:14.167Z,28.27
2018-02-18T18:49:41.683Z,25.65
2018-02-18T18:52:09.183Z,32.28
2018-02-18T18:54:36.693Z,41.00
2018-02-18T18:57:04.917Z,31.00
2018-02-18T18:59:32.435Z,39.78
2018-02-18T19:01:59.952Z,42.95
2018-02-18T19:04:28.392Z,58.90
2018-02-18T19:06:55.905Z,60.60
2018-02-18T19:09:23.162Z,44.28
2018-02-18T19:11:50.673Z,39.05
2018-02-18T19:14:18.218Z,91.03
2018-02-18T19:16:45.742Z,39.92
2018-02-18T19:19:15.182Z,25.25
2018-02-18T19:21:42.677Z,26.60
2018-02-18T19:24:10.214Z,22.83
2018-02-18T19:26:37.714Z,23.87
2018-02-18T19:29:05.223Z,20.90
2018-02-18T19:31:32.714Z,23.87
2018-02-18T19:34:00.206Z,24.52
2018-02-18T19:36:27.722Z,16.33
2018-02-18T19:38:55.223Z,17.80
2018-02-18T19:41:22.749Z,14.68
2018-02-18T19:43:50.262Z,20.45
2018-02-18T19:46:17.764Z,20.37
2018-02-18T19:48:45.255Z,17.62
2018-02-18T19:51:12.763Z,19.08
2018-02-18T19:53:40.289Z,17.12
2018-02-18T19:56:08.718Z,19.92
2018-02-18T19:58:36.243Z,12.37
2018-02-18T20:01:03.739Z,15.27
2018-02-18T20:03:31.265Z,18.48
2018-02-18T20:05:59.828Z,20.52
2018-02-18T20:08:27.321Z,19.85
2018-02-18T20:10:54.837Z,21.77
2018-02-18T20:13:22.405Z,20.23
2018-02-18T20:15:51.877Z,24.02
2018-02-18T20:18:20.599Z,18.92
2018-02-18T20:20:49.061Z,18.10
2018-02-18T20:23:16.586Z,29.40
2018-02-18T20:25:44.095Z,19.12
2018-02-18T20:28:11.608Z,15.25
2018-02-18T20:30:39.112Z,18.75
2018-02-18T20:33:06.649Z,21.02
2018-02-18T20:35:34.140Z,26.65
2018-02-18T20:38:01.638Z,19.02
2018-02-18T20:40:29.138Z,22.25
2018-02-18T20:42:56.673Z,18.90
2018-02-18T20:45:24.206Z,21.30
2018-02-18T20:47:51.711Z,22.30
2018-02-18T20:50:19.226Z,21.48
2018-02-18T20:52:46.723Z,22.75
2018-02-18T20:55:14.230Z,25.02
2018-02-18T20:57:41.747Z,20.75
2018-02-18T21:00:09.670Z,21.30
2018-02-18T21:02:37.182Z,30.10
2018-02-18T21:05:04.707Z,20.62
2018-02-18T21:07:32.614Z,23.55
2018-02-18T21:10:00.110Z,23.55
2018-02-18T21:12:27.610Z,24.48
2018-02-18T21:14:55.119Z,24.75
2018-02-18T21:17:22.619Z,23.20
2018-02-18T21:19:50.116Z,22.02
2018-02-18T21:22:17.618Z,24.70
2018-02-18T21:24:45.105Z,18.33
2018-02-18T21:27:12.599Z,25.80
2018-02-18T21:29:40.094Z,24.85
2018-02-18T21:32:07.611Z,26.45
2018-02-18T21:34:35.127Z,27.30
2018-02-18T21:37:02.632Z,21.98
2018-02-18T21:39:30.147Z,20.00
2018-02-18T21:41:57.646Z,20.45
2018-02-18T21:44:25.152Z,26.65
2018-02-18T21:46:52.663Z,22.13
2018-02-18T21:49:20.295Z,29.52
2018-02-18T21:51:47.798Z,23.87
2018-02-18T21:54:15.312Z,26.60
2018-02-18T21:56:42.819Z,30.33
2018-02-18T21:59:10.445Z,22.27
2018-02-18T22:01:37.942Z,26.27
2018-02-18T22:04:05.437Z,25.25
2018-02-18T22:06:32.947Z,27.23
2018-02-18T22:09:00.465Z,24.40
2018-02-18T22:11:27.971Z,25.35
2018-02-18T22:13:55.457Z,29.33
2018-02-18T22:16:22.955Z,22.23
2018-02-18T22:18:50.450Z,26.52
2018-02-18T22:21:17.971Z,23.98
2018-02-18T22:23:45.583Z,27.08
2018-02-18T22:26:13.095Z,23.62
2018-02-18T22:28:40.599Z,24.80
2018-02-18T22:31:08.093Z,25.30
2018-02-18T22:33:35.595Z,22.37
2018-02-18T22:36:03.094Z,22.75
2018-02-18T22:38:31.614Z,25.10
2018-02-18T22:40:59.141Z,23.02
2018-02-18T22:43:26.645Z,20.60
2018-02-18T22:45:54.162Z,24.33
2018-02-18T22:48:21.675Z,23.65
2018-02-18T22:53:22.826Z,27.10
2018-02-18T22:55:51.355Z,24.05
2018-02-18T22:58:18.845Z,28.98
2018-02-18T23:00:46.358Z,25.40
2018-02-18T23:03:13.857Z,21.25
2018-02-18T23:05:46.947Z,22.40
2018-02-18T23:08:14.463Z,24.27
2018-02-18T23:10:41.962Z,26.42
2018-02-18T23:13:09.485Z,23.67
2018-02-18T23:15:36.987Z,27.37
2018-02-18T23:18:06.354Z,23.60
2018-02-18T23:20:39.410Z,22.90
2018-02-18T23:23:06.914Z,25.95
2018-02-18T23:25:34.421Z,21.85
2018-02-18T23:28:01.918Z,26.50
2018-02-18T23:30:29.447Z,22.90
2018-02-18T23:32:56.942Z,25.33
2018-02-18T23:35:24.447Z,24.90
2018-02-18T23:37:51.946Z,22.58
2018-02-18T23:40:19.441Z,29.48
2018-02-18T23:42:46.947Z,23.55
2018-02-18T23:45:14.446Z,24.10
2018-02-18T23:47:41.974Z,24.17
2018-02-18T23:50:09.469Z,28.08
2018-02-18T23:52:37.083Z,24.87
2018-02-18T23:55:04.367Z,29.52
2018-02-18T23:57:31.875Z,24.10
2018-02-18T23:59:59.402Z,23.05
